createdAt,value
2016-09-07T00:03:50.278Z,21.37
2016-09-07T00:08:46.962Z,21.39
2016-09-07T00:13:43.576Z,21.37
2016-09-07T00:18:40.242Z,21.27
2016-09-07T00:23:36.834Z,21.27
2016-09-07T00:28:33.409Z,21.39
2016-09-07T00:33:29.962Z,21.22
2016-09-07T00:38:26.722Z,21.24
2016-09-07T00:43:23.143Z,21.12
2016-09-07T00:48:20.094Z,21.15
2016-09-07T00:53:16.775Z,21.15
2016-09-07T00:58:13.616Z,21.11
2016-09-07T01:03:10.217Z,21.11
2016-09-07T01:08:06.764Z,21.11
2016-09-07T01:13:03.464Z,21.09
2016-09-07T01:18:00.020Z,21.09
2016-09-07T01:22:56.672Z,20.99
2016-09-07T01:27:53.161Z,21.05
2016-09-07T01:32:50.164Z,20.97
2016-09-07T01:37:47.138Z,20.92
2016-09-07T01:42:43.807Z,20.93
2016-09-07T01:47:40.968Z,20.97
2016-09-07T01:52:37.743Z,20.90
2016-09-07T01:57:34.369Z,20.96
2016-09-07T02:02:31.338Z,20.78
2016-09-07T02:07:28.049Z,20.93
2016-09-07T02:12:24.485Z,20.90
2016-09-07T02:17:20.965Z,20.84
2016-09-07T02:22:17.438Z,20.85
2016-09-07T02:27:14.521Z,20.80
2016-09-07T02:32:11.124Z,20.78
2016-09-07T02:37:07.646Z,20.78
2016-09-07T02:42:03.990Z,20.75
2016-09-07T02:47:00.316Z,20.87
2016-09-07T02:51:56.816Z,20.56
2016-09-07T02:56:53.472Z,20.52
2016-09-07T03:01:49.917Z,20.60
2016-09-07T03:06:46.471Z,20.59
2016-09-07T03:11:43.331Z,20.55
2016-09-07T03:16:40.196Z,20.58
2016-09-07T03:21:36.549Z,20.55
2016-09-07T03:26:32.986Z,20.47
2016-09-07T03:31:29.589Z,20.47
2016-09-07T03:36:26.102Z,20.44
2016-09-07T03:41:22.588Z,20.40
2016-09-07T03:46:19.113Z,20.32
2016-09-07T03:51:16.207Z,20.32
2016-09-07T03:56:15.550Z,20.43
2016-09-07T04:01:11.492Z,20.29
2016-09-07T04:06:07.994Z,20.31
2016-09-07T04:11:04.995Z,20.16
2016-09-07T04:16:01.704Z,20.25
2016-09-07T04:20:58.185Z,20.29
2016-09-07T04:25:54.765Z,20.29
2016-09-07T04:30:51.840Z,20.19
2016-09-07T04:35:48.951Z,20.22
2016-09-07T04:40:45.466Z,20.16
2016-09-07T04:45:42.039Z,20.10
2016-09-07T04:50:39.014Z,20.14
2016-09-07T04:55:35.719Z,20.10
2016-09-07T05:00:32.033Z,20.19
2016-09-07T05:05:28.777Z,20.14
2016-09-07T05:10:25.661Z,20.28
2016-09-07T05:15:22.188Z,20.21
2016-09-07T05:20:19.186Z,20.21
2016-09-07T05:25:15.672Z,20.31
2016-09-07T05:30:12.391Z,20.26
2016-09-07T05:35:09.761Z,20.36
2016-09-07T05:40:07.518Z,20.34
2016-09-07T05:45:04.055Z,20.43
2016-09-07T05:50:01.037Z,20.62
2016-09-07T05:54:57.532Z,20.67
2016-09-07T05:59:54.248Z,20.80
2016-09-07T06:04:50.742Z,20.74
2016-09-07T06:09:47.323Z,20.81
2016-09-07T06:14:43.842Z,20.82
2016-09-07T06:19:41.504Z,20.95
2016-09-07T06:24:37.826Z,20.99
2016-09-07T06:29:34.472Z,20.95
2016-09-07T06:34:33.619Z,21.06
2016-09-07T06:39:29.788Z,20.97
2016-09-07T06:44:26.463Z,21.17
2016-09-07T06:49:23.330Z,21.20
2016-09-07T06:54:20.082Z,21.27
2016-09-07T06:59:16.840Z,21.33
2016-09-07T07:04:13.475Z,21.46
2016-09-07T07:09:10.550Z,21.48
2016-09-07T07:14:07.068Z,21.57
2016-09-07T07:19:03.782Z,21.69
2016-09-07T07:24:00.507Z,21.62
2016-09-07T07:28:57.140Z,21.70
2016-09-07T07:33:53.738Z,21.83
2016-09-07T07:38:50.420Z,21.96
2016-09-07T07:43:47.089Z,22.28
2016-09-07T07:48:44.148Z,22.93
2016-09-07T07:53:41.047Z,23.00
2016-09-07T07:58:38.024Z,22.93
2016-09-07T08:03:34.766Z,22.93
2016-09-07T08:08:31.848Z,22.96
2016-09-07T08:13:28.756Z,23.10
2016-09-07T08:18:26.244Z,23.46
2016-09-07T08:23:23.372Z,23.81
2016-09-07T08:28:20.254Z,24.03
2016-09-07T08:33:17.430Z,24.17
2016-09-07T08:38:14.412Z,24.35
2016-09-07T08:43:11.131Z,24.42
2016-09-07T08:48:07.985Z,24.54
2016-09-07T08:53:04.326Z,24.60
2016-09-07T08:58:00.657Z,24.50
2016-09-07T09:02:57.099Z,24.54
2016-09-07T09:07:53.963Z,24.53
2016-09-07T09:12:50.223Z,24.50
2016-09-07T09:17:47.004Z,24.36
2016-09-07T09:22:43.378Z,24.23
2016-09-07T09:27:40.126Z,24.13
2016-09-07T09:32:36.517Z,23.98
2016-09-07T09:37:33.461Z,23.92
2016-09-07T09:42:29.973Z,23.92
2016-09-07T09:47:26.553Z,23.86
2016-09-07T09:52:23.047Z,23.77
2016-09-07T09:57:19.680Z,23.74
2016-09-07T10:02:16.243Z,23.68
2016-09-07T10:07:13.114Z,23.73
2016-09-07T10:12:09.615Z,23.76
2016-09-07T10:17:06.346Z,23.61
2016-09-07T10:22:05.497Z,23.66
2016-09-07T10:27:01.602Z,23.76
2016-09-07T10:31:58.213Z,23.69
2016-09-07T10:36:54.800Z,23.63
2016-09-07T10:41:51.318Z,23.63
2016-09-07T10:46:47.929Z,23.50
2016-09-07T10:51:44.940Z,23.62
2016-09-07T10:56:41.805Z,23.51
2016-09-07T11:01:38.871Z,23.63
2016-09-07T11:06:36.894Z,23.68
2016-09-07T11:11:33.038Z,23.63
2016-09-07T11:16:29.640Z,23.73
2016-09-07T11:21:26.342Z,23.69
2016-09-07T11:26:22.831Z,23.74
2016-09-07T11:31:19.499Z,23.76
2016-09-07T11:36:16.097Z,23.74
2016-09-07T11:41:12.615Z,23.81
2016-09-07T11:46:09.413Z,23.78
2016-09-07T11:51:06.058Z,23.83
2016-09-07T11:56:05.112Z,23.92
2016-09-07T12:01:01.369Z,23.91
2016-09-07T12:05:58.056Z,23.84
2016-09-07T12:10:54.757Z,23.93
2016-09-07T12:15:53.869Z,23.91
2016-09-07T12:20:49.983Z,23.96
2016-09-07T12:25:46.610Z,24.05
2016-09-07T12:30:43.363Z,24.03
2016-09-07T12:35:40.026Z,24.03
2016-09-07T12:40:36.606Z,24.01
2016-09-07T12:45:33.184Z,23.99
2016-09-07T12:50:29.661Z,24.05
2016-09-07T12:55:26.458Z,24.05
2016-09-07T13:00:23.085Z,23.93
2016-09-07T13:05:19.632Z,23.99
2016-09-07T13:10:16.187Z,24.03
2016-09-07T13:15:12.829Z,24.05
2016-09-07T13:20:11.957Z,24.17
2016-09-07T13:25:08.128Z,24.08
2016-09-07T13:30:04.794Z,24.14
2016-09-07T13:35:01.499Z,24.11
2016-09-07T13:39:58.152Z,24.10
2016-09-07T13:44:54.918Z,24.16
2016-09-07T13:49:51.758Z,24.11
2016-09-07T13:54:48.660Z,24.08
2016-09-07T13:59:45.041Z,24.06
2016-09-07T14:04:41.862Z,24.08
2016-09-07T14:09:38.485Z,24.14
2016-09-07T14:14:35.245Z,24.16
2016-09-07T14:19:31.946Z,24.16
2016-09-07T14:24:28.564Z,24.16
2016-09-07T14:29:25.162Z,24.13
2016-09-07T14:34:21.923Z,24.16
2016-09-07T14:39:20.183Z,24.18
2016-09-07T14:44:16.423Z,24.20
2016-09-07T14:49:13.417Z,24.20
2016-09-07T14:54:10.140Z,24.32
2016-09-07T14:59:06.887Z,24.38
2016-09-07T15:04:03.552Z,24.26
2016-09-07T15:09:00.171Z,24.45
2016-09-07T15:13:57.350Z,24.80
2016-09-07T15:18:54.378Z,24.84
2016-09-07T15:23:50.897Z,24.84
2016-09-07T15:28:47.960Z,24.69
2016-09-07T15:33:44.820Z,24.65
2016-09-07T15:38:41.591Z,24.68
2016-09-07T15:43:38.656Z,24.63
2016-09-07T15:48:35.397Z,24.63
2016-09-07T15:53:31.966Z,24.68
2016-09-07T15:58:28.709Z,24.76
2016-09-07T16:03:25.568Z,24.69
2016-09-07T16:08:22.447Z,24.85
2016-09-07T16:13:19.234Z,24.92
2016-09-07T16:18:15.945Z,25.11
2016-09-07T16:23:12.597Z,25.17
2016-09-07T16:28:09.830Z,25.38
2016-09-07T16:33:06.598Z,25.40
2016-09-07T16:38:03.151Z,25.35
2016-09-07T16:42:59.929Z,25.38
2016-09-07T16:47:57.258Z,25.16
2016-09-07T16:52:56.485Z,25.08
2016-09-07T16:57:52.607Z,24.93
2016-09-07T17:02:49.339Z,24.77
2016-09-07T17:07:48.550Z,24.70
2016-09-07T17:12:44.972Z,24.63
2016-09-07T17:17:41.601Z,24.45
2016-09-07T17:22:38.398Z,24.48
2016-09-07T17:27:35.315Z,24.39
2016-09-07T17:32:31.992Z,24.38
2016-09-07T17:37:28.676Z,24.23
2016-09-07T17:42:25.449Z,24.23
2016-09-07T17:47:22.140Z,24.16
2016-09-07T17:52:19.570Z,24.13
2016-09-07T17:57:16.840Z,24.06
2016-09-07T18:02:13.418Z,24.08
2016-09-07T18:07:10.135Z,23.92
2016-09-07T18:12:07.925Z,23.84
2016-09-07T18:17:04.334Z,23.81
2016-09-07T18:22:01.681Z,23.76
2016-09-07T18:26:58.380Z,23.74
2016-09-07T18:31:55.188Z,23.71
2016-09-07T18:36:52.486Z,23.68
2016-09-07T18:41:49.206Z,23.62
2016-09-07T18:46:45.997Z,23.51
2016-09-07T18:51:42.976Z,23.43
2016-09-07T18:56:39.797Z,23.37
2016-09-07T19:01:36.686Z,23.43
2016-09-07T19:06:33.578Z,23.40
2016-09-07T19:11:30.458Z,23.32
2016-09-07T19:16:27.727Z,23.23
2016-09-07T19:21:24.592Z,23.28
2016-09-07T19:26:24.582Z,23.18
2016-09-07T19:31:20.932Z,23.21
2016-09-07T19:36:17.723Z,23.21
2016-09-07T19:41:14.699Z,23.15
2016-09-07T19:46:11.184Z,23.13
2016-09-07T19:51:08.090Z,23.09
2016-09-07T19:56:05.083Z,23.05
2016-09-07T20:01:02.000Z,22.93
2016-09-07T20:05:58.637Z,22.93
2016-09-07T20:10:56.833Z,22.85
2016-09-07T20:15:53.127Z,22.85
2016-09-07T20:20:50.020Z,22.93
2016-09-07T20:25:47.062Z,23.03
2016-09-07T20:30:43.748Z,22.90
2016-09-07T20:35:40.375Z,22.81
2016-09-07T20:40:36.789Z,22.81
2016-09-07T20:45:35.941Z,22.66
2016-09-07T20:50:32.228Z,22.68
2016-09-07T20:55:29.029Z,22.51
2016-09-07T21:00:25.586Z,22.29
2016-09-07T21:05:22.223Z,22.51
2016-09-07T21:10:18.613Z,22.44
2016-09-07T21:15:15.272Z,22.44
2016-09-07T21:20:11.831Z,22.50
2016-09-07T21:25:08.402Z,22.51
2016-09-07T21:30:04.978Z,22.53
2016-09-07T21:35:01.614Z,22.47
2016-09-07T21:39:58.100Z,22.45
2016-09-07T21:44:54.705Z,22.45
2016-09-07T21:49:51.371Z,22.44
2016-09-07T21:54:50.414Z,22.45
2016-09-07T21:59:46.135Z,22.41
2016-09-07T22:04:42.640Z,22.38
2016-09-07T22:09:39.262Z,22.43
2016-09-07T22:14:35.806Z,22.35
2016-09-07T22:19:32.398Z,22.39
2016-09-07T22:24:29.070Z,22.38
2016-09-07T22:29:25.775Z,22.33
2016-09-07T22:34:22.511Z,22.35
2016-09-07T22:39:19.246Z,22.35
2016-09-07T22:44:15.963Z,22.39
2016-09-07T22:49:12.623Z,22.32
2016-09-07T22:54:09.057Z,22.32
2016-09-07T22:59:05.784Z,22.26
2016-09-07T23:04:02.264Z,22.28
2016-09-07T23:08:59.685Z,22.25
2016-09-07T23:13:57.357Z,22.25
2016-09-07T23:18:53.839Z,22.28
2016-09-07T23:23:50.307Z,22.35
2016-09-07T23:28:46.961Z,22.26
2016-09-07T23:33:43.737Z,22.39
2016-09-07T23:38:40.595Z,22.39
2016-09-07T23:43:37.988Z,22.20
2016-09-07T23:48:34.778Z,22.07
2016-09-07T23:53:31.268Z,22.14
2016-09-07T23:58:27.748Z,22.15
